Flugplatz Mönchengladbach

Bericht für EDLN

vom 18.07. um 00:20 UTC

Wind 2 kt aus 120°

Sichtweite 10 km oder mehr

keine Wolken

Temperatur 13.0°C

Taupunkt 12.0°C

Luftfeuchtigkeit 94%

Luftdruck 1013 hPa

EDLN 180020Z AUTO 12002KT 9999 // NCD 13/12 Q1013

Prognose für EDLN

vom 17.07. um 00:00 UTC

Am 17.07. zwischen 00:00 UTC und 00:00 UTC

Wind 7 kt aus 350°

Sichtweite 10 km oder mehr

keine signifikanten Wettererscheinungen

keine Wolken


Am 17.07. zwischen 00:00 und 00:00 UTC übergehend zu

variable Windrichtung mit 3 kt

Sichtweite 10 km oder mehr

keine signifikanten Wettererscheinungen

keine Wolken

TAF EDLN 171700Z 1718/1803 35007KT CAVOK BECMG 1718/1721 VRB03KT
Impressum